Time;durP1;ratioP1;P1;durP2;ratioP2;P2;SDS_P1;SDS_P2;PMS_P1;PMS_P2;Temp;Humidity;BMP_temperature;BMP_pressure;BME280_temperature;BME280_humidity;BME280_pressure;Samples;Min_cycle;Max_cycle;Signal;HPM_P1;HPM_P2
2021/07/12 09:03:31;;;;;;;8.13;6.25;;;;;;;31.07;42.65;99897.23;1784579;79;21639;-41
2021/07/12 09:06:14;;;;;;;9.65;6.50;;;;;;;31.20;41.99;99895.13;1752631;79;21103;-36
2021/07/12 09:08:54;;;;;;;13.98;6.92;;;;;;;31.30;41.31;99897.84;1738445;81;21172;-37
2021/07/12 09:11:32;;;;;;;8.53;6.40;;;;;;;31.41;41.17;99893.65;1757788;81;21128;-44
2021/07/12 09:14:12;;;;;;;10.85;6.12;;;;;;;31.48;40.17;99896.97;1742137;81;21039;-35
2021/07/12 09:16:47;;;;;;;7.35;6.22;;;;;;;31.59;39.71;99896.47;1744842;81;21052;-41
2021/07/12 09:19:29;;;;;;;9.35;6.03;;;;;;;31.77;40.14;99896.08;1745194;81;21594;-41
2021/07/12 09:22:09;;;;;;;11.50;6.72;;;;;;;31.91;38.17;99893.47;1745151;81;21432;-35
2021/07/12 09:24:53;;;;;;;7.72;6.53;;;;;;;32.02;37.28;99889.23;1744226;81;21028;-36
2021/07/12 09:27:23;;;;;;;;;;;;;;;32.04;38.02;99886.72;1747516;82;21020;-41
2021/07/12 09:29:51;;;;;;;10.90;6.22;;;;;;;31.91;37.86;99886.70;1744106;81;20501;-37
2021/07/12 09:32:22;;;;;;;7.03;6.15;;;;;;;31.80;38.23;99880.97;1742373;81;21485;-42
2021/07/12 09:34:50;;;;;;;10.48;6.55;;;;;;;31.82;38.10;99880.81;1740805;82;21008;-42
2021/07/12 09:37:19;;;;;;;9.45;6.08;;;;;;;31.90;38.65;99868.78;1742652;81;21083;-43
2021/07/12 09:39:50;;;;;;;6.50;5.90;;;;;;;32.02;37.03;99874.36;1741968;81;21064;-42
2021/07/12 09:42:24;;;;;;;8.75;6.20;;;;;;;32.11;38.17;99874.81;1744218;81;21063;-37
2021/07/12 09:44:55;;;;;;;11.20;6.60;;;;;;;32.08;37.68;99874.27;1736349;81;21650;-36
2021/07/12 09:47:27;;;;;;;9.58;6.60;;;;;;;31.94;38.50;99872.37;1743353;81;21056;-37
2021/07/12 09:50:10;;;;;;;;;;;;;;;31.84;40.24;99872.08;1745571;82;21052;-42
2021/07/12 09:52:56;;;;;;;8.55;7.12;;;;;;;31.67;41.22;99864.18;1742162;81;20375;-43
2021/07/12 09:55:28;;;;;;;13.70;8.05;;;;;;;31.45;42.50;99867.55;1736790;82;21151;-42
2021/07/12 09:58:16;;;;;;;11.28;8.43;;;;;;;31.24;44.95;99855.53;1711076;82;21053;-36
2021/07/12 10:00:54;;;;;;;11.78;7.85;;;;;;;31.10;45.35;99855.09;1742273;82;21138;-42
2021/07/12 10:03:22;;;;;;;13.08;8.95;;;;;;;30.98;46.02;99860.63;1736803;81;21064;-42
2021/07/12 10:05:49;;;;;;;12.55;9.80;;;;;;;30.94;46.68;99852.95;1741550;82;21630;-43
2021/07/12 10:08:17;;;;;;;13.38;8.98;;;;;;;31.00;48.37;99842.43;1740911;81;21112;-42
2021/07/12 10:10:44;;;;;;;12.10;8.90;;;;;;;31.12;48.23;99839.59;1740643;82;21071;-42
2021/07/12 10:13:12;;;;;;;13.93;8.40;;;;;;;31.22;47.31;99841.80;1739875;82;21535;-44
2021/07/12 10:15:39;;;;;;;14.25;8.95;;;;;;;31.24;46.38;99843.84;1741560;82;21047;-38
2021/07/12 10:18:06;;;;;;;10.78;8.40;;;;;;;31.17;46.42;99838.67;1742247;81;21016;-43
2021/07/12 10:20:34;;;;;;;17.92;8.53;;;;;;;31.10;46.45;99823.53;1742009;82;21161;-43
2021/07/12 10:23:04;;;;;;;11.83;8.25;;;;;;;31.11;46.13;99818.48;1742533;82;21092;-37
2021/07/12 10:25:32;;;;;;;13.40;8.15;;;;;;;31.12;45.11;99819.33;1741892;82;21111;-42
2021/07/12 10:28:08;;;;;;;11.08;8.43;;;;;;;31.10;44.98;99815.43;1742160;82;21016;-44
2021/07/12 10:30:42;;;;;;;10.10;7.03;;;;;;;31.16;44.60;99818.91;1736232;81;21468;-43
2021/07/12 10:33:10;;;;;;;9.60;7.28;;;;;;;31.29;43.72;99819.14;1735229;81;21087;-44
2021/07/12 10:35:52;;;;;;;11.15;7.60;;;;;;;31.54;42.47;99821.22;1739296;82;21609;-43
2021/07/12 10:38:28;;;;;;;13.75;7.70;;;;;;;31.83;42.36;99821.67;1720264;81;21035;-36
2021/07/12 10:40:58;;;;;;;14.78;7.33;;;;;;;32.02;40.70;99814.85;1726283;82;21040;-37
2021/07/12 10:43:54;;;;;;;17.60;7.47;;;;;;;32.14;40.91;99823.63;1704129;82;21699;-37
2021/07/12 10:46:30;;;;;;;25.30;7.37;;;;;;;32.16;40.53;99827.02;1740918;82;21581;-44
2021/07/12 10:49:03;;;;;;;9.95;6.80;;;;;;;32.11;40.58;99827.97;1740294;82;21033;-38
2021/07/12 10:51:34;;;;;;;10.95;5.85;;;;;;;31.98;38.59;99832.37;1760397;80;21051;-35
2021/07/12 10:54:10;;;;;;;19.23;6.60;;;;;;;31.87;37.79;99839.31;1755317;81;21071;-36
2021/07/12 10:56:57;;;;;;;11.35;6.55;;;;;;;31.74;35.98;99834.20;1752526;81;21471;-36
2021/07/12 10:59:33;;;;;;;11.63;7.15;;;;;;;31.63;37.43;99828.97;1753198;81;21074;-36
2021/07/12 11:02:11;;;;;;;15.48;7.00;;;;;;;31.50;39.56;99844.15;1752517;81;21052;-35
2021/07/12 11:04:45;;;;;;;10.90;6.95;;;;;;;31.36;40.07;99847.28;1740126;81;21566;-42
2021/07/12 11:07:14;;;;;;;8.33;6.75;;;;;;;31.27;40.06;99846.31;1676669;84;21586;-36
2021/07/12 11:10:03;;;;;;;13.10;7.00;;;;;;;31.18;40.01;99847.13;1742063;82;21630;-36
2021/07/12 11:12:37;;;;;;;12.70;6.83;;;;;;;31.09;40.29;99840.74;1741862;81;22893;-36
2021/07/12 11:15:16;;;;;;;12.25;7.28;;;;;;;31.00;40.92;99837.03;1741931;82;21578;-39
2021/07/12 11:17:54;;;;;;;12.88;7.33;;;;;;;30.93;41.33;99831.84;1742755;81;21091;-37
2021/07/12 11:20:51;;;;;;;10.70;6.85;;;;;;;30.86;42.39;99830.71;1733868;82;21137;-43
2021/07/12 11:23:49;;;;;;;18.60;8.13;;;;;;;30.73;43.30;99831.45;1729060;82;21079;-43
2021/07/12 11:26:27;;;;;;;13.83;7.22;;;;;;;30.63;44.36;99828.73;1741909;82;21064;-44
2021/07/12 11:28:57;;;;;;;15.40;8.58;;;;;;;30.48;45.19;99835.51;1740559;82;21091;-41
2021/07/12 11:32:05;;;;;;;9.70;6.97;;;;;;;30.39;45.86;99843.95;1740269;82;21079;-42
2021/07/12 11:34:39;;;;;;;19.12;7.40;;;;;;;30.32;46.28;99851.36;1740785;82;21583;-35
2021/07/12 11:37:13;;;;;;;11.97;7.60;;;;;;;30.22;46.70;99856.74;1741343;82;21005;-36
2021/07/12 11:39:56;;;;;;;16.67;7.42;;;;;;;30.16;46.69;99858.64;1741713;82;21589;-35
2021/07/12 11:42:35;;;;;;;22.32;8.30;;;;;;;30.16;46.21;99861.33;1742259;81;21076;-41
2021/07/12 11:45:19;;;;;;;26.02;6.75;;;;;;;30.12;45.09;99903.89;1741254;82;21590;-36
2021/07/12 11:47:55;;;;;;;24.07;7.80;;;;;;;29.58;43.38;99909.00;1740640;81;21048;-35
2021/07/12 11:50:24;;;;;;;28.23;7.53;;;;;;;28.65;45.29;99909.14;1739051;82;21060;-35
2021/07/12 11:52:54;;;;;;;16.85;6.92;;;;;;;27.81;46.98;99889.28;1735052;82;21071;-36
2021/07/12 11:55:29;;;;;;;18.60;7.70;;;;;;;27.12;49.03;99877.56;1745522;81;21086;-36
2021/07/12 11:57:58;;;;;;;13.65;7.45;;;;;;;26.71;50.90;99893.53;1751927;81;21632;-36
2021/07/12 12:00:31;;;;;;;16.67;7.70;;;;;;;26.49;52.07;99891.55;1742007;81;21046;-41
2021/07/12 12:03:16;;;;;;;17.92;7.87;;;;;;;26.36;52.70;99905.93;1734679;82;21047;-37
2021/07/12 12:05:45;;;;;;;20.27;8.05;;;;;;;26.26;53.75;99930.70;1741265;82;21088;-36
2021/07/12 12:08:16;;;;;;;12.70;7.90;;;;;;;26.15;54.79;99916.34;1737190;82;21111;-43
2021/07/12 12:10:45;;;;;;;17.87;7.42;;;;;;;26.06;56.00;99915.67;1741713;82;21080;-43
2021/07/12 12:13:19;;;;;;;20.97;9.18;;;;;;;25.97;57.82;99920.69;1741340;81;21091;-38
2021/07/12 12:15:52;;;;;;;13.65;7.87;;;;;;;25.77;60.55;99927.08;1741827;82;21123;-37
2021/07/12 12:18:24;;;;;;;11.68;8.23;;;;;;;25.41;61.83;99938.81;1741144;82;21539;-43
2021/07/12 12:20:55;;;;;;;11.53;7.70;;;;;;;25.06;63.61;99935.80;1710111;84;21070;-37
2021/07/12 12:23:27;;;;;;;22.87;9.05;;;;;;;24.82;65.33;99936.03;1742277;81;21063;-43
2021/07/12 12:26:12;;;;;;;13.08;8.50;;;;;;;24.68;65.79;99956.95;1713421;84;21061;-43
2021/07/12 12:28:48;;;;;;;10.70;7.83;;;;;;;24.65;66.38;99966.52;1741838;81;21040;-43
2021/07/12 12:31:26;;;;;;;19.73;8.98;;;;;;;24.65;66.58;99958.50;1741282;82;21583;-37
2021/07/12 12:34:02;;;;;;;15.78;7.78;;;;;;;24.48;67.11;99989.45;1733166;81;21102;-37
2021/07/12 12:36:34;;;;;;;9.38;7.65;;;;;;;24.48;67.11;99989.45;1731386;82;21134;-42
2021/07/12 12:39:15;;;;;;;19.62;8.03;;;;;;;24.32;66.46;99992.18;1702691;81;21015;-43
2021/07/12 12:41:50;;;;;;;17.55;8.95;;;;;;;24.23;67.64;100005.61;1736493;81;21075;-42
2021/07/12 12:44:19;;;;;;;19.57;8.98;;;;;;;24.04;69.27;100011.22;1750069;81;21035;-43
2021/07/12 12:46:56;;;;;;;13.62;7.85;;;;;;;23.83;70.17;100016.05;1757541;80;21085;-37
2021/07/12 12:49:32;;;;;;;14.13;8.93;;;;;;;23.69;70.92;100025.81;1741697;81;21012;-44
2021/07/12 12:52:08;;;;;;;15.93;9.18;;;;;;;23.56;71.74;100045.19;1756739;81;20976;-44
2021/07/12 12:54:41;;;;;;;12.98;7.90;;;;;;;23.46;73.55;100089.36;1754560;81;21660;-37
2021/07/12 12:57:08;;;;;;;14.55;9.35;;;;;;;23.34;74.33;100074.05;1744331;81;21023;-40
2021/07/12 12:59:41;;;;;;;13.70;9.68;;;;;;;23.21;73.11;100075.69;1736335;81;21027;-44
2021/07/12 13:02:14;;;;;;;11.15;7.53;;;;;;;23.16;73.23;100094.61;1754985;81;20980;-38
2021/07/12 13:04:50;;;;;;;13.43;10.25;;;;;;;23.10;72.91;100102.95;1745669;81;21068;-43
2021/07/12 13:07:25;;;;;;;12.03;8.75;;;;;;;23.02;74.54;100102.52;1743337;82;21004;-43
2021/07/12 13:10:15;;;;;;;15.40;10.63;;;;;;;22.90;74.98;100080.48;1741918;82;21099;-37
2021/07/12 13:12:45;;;;;;;9.68;8.68;;;;;;;22.81;77.28;100066.69;1740482;81;21107;-43
2021/07/12 13:15:13;;;;;;;14.63;9.40;;;;;;;22.77;76.23;100053.59;1735105;82;21055;-43
2021/07/12 13:17:42;;;;;;;9.70;8.28;;;;;;;22.74;77.92;100029.78;1722707;81;21012;-43
2021/07/12 13:20:30;;;;;;;12.20;9.58;;;;;;;22.62;79.47;100017.12;1741909;82;21044;-37
2021/07/12 13:22:56;;;;;;;14.23;9.55;;;;;;;22.50;80.38;100005.31;1741365;81;21039;-43
2021/07/12 13:25:29;;;;;;;14.18;10.43;;;;;;;22.38;80.19;99999.28;1742799;82;21063;-43
2021/07/12 13:28:05;;;;;;;17.52;11.53;;;;;;;22.33;81.72;100008.02;1703378;82;21416;-43
2021/07/12 13:30:40;;;;;;;18.73;11.73;;;;;;;22.30;82.43;99997.03;1742794;81;21091;-43
2021/07/12 13:33:04;;;;;;;12.88;10.50;;;;;;;22.30;82.97;100008.55;1753354;81;21012;-37
2021/07/12 13:35:31;;;;;;;14.58;10.95;;;;;;;22.30;83.90;100017.02;1758678;81;21061;-38
2021/07/12 13:38:01;;;;;;;12.35;10.95;;;;;;;22.29;84.65;100014.83;1752271;80;21441;-43
2021/07/12 13:40:27;;;;;;;16.37;11.55;;;;;;;22.30;85.99;100009.02;1753078;81;21112;-37
2021/07/12 13:42:54;;;;;;;14.30;11.12;;;;;;;22.27;87.50;100003.88;1754215;81;20976;-37
2021/07/12 13:45:22;;;;;;;18.77;12.63;;;;;;;22.22;87.54;100024.56;1760224;81;21568;-37
2021/07/12 13:47:49;;;;;;;16.42;10.80;;;;;;;22.16;90.38;100052.86;1756296;81;21004;-37
2021/07/12 13:50:18;;;;;;;15.03;10.28;;;;;;;22.05;88.34;100054.70;1758341;81;21024;-43
2021/07/12 13:52:46;;;;;;;12.65;9.63;;;;;;;21.99;87.91;100030.57;1755310;81;21023;-37
2021/07/12 13:55:14;;;;;;;12.23;9.45;;;;;;;21.90;87.84;100017.71;1699115;83;21641;-37
2021/07/12 13:57:43;;;;;;;13.72;8.10;;;;;;;21.85;87.24;99998.91;1754987;81;21035;-43
2021/07/12 14:00:11;;;;;;;13.53;8.28;;;;;;;21.77;86.27;99982.87;1696330;84;21037;-37
2021/07/12 14:02:41;;;;;;;10.48;8.45;;;;;;;21.71;86.34;99970.34;1752056;80;20982;-38
2021/07/12 14:05:10;;;;;;;11.53;7.42;;;;;;;21.65;85.40;99968.00;1756575;81;21578;-43
2021/07/12 14:07:39;;;;;;;10.90;7.58;;;;;;;21.59;84.20;99967.84;1757331;81;20986;-36
2021/07/12 14:10:09;;;;;;;7.47;6.67;;;;;;;21.53;83.65;99976.13;1757650;80;21071;-37
